Time;durP1;ratioP1;P1;durP2;ratioP2;P2;SDS_P1;SDS_P2;PMS_P1;PMS_P2;Temp;Humidity;BMP_temperature;BMP_pressure;BME280_temperature;BME280_humidity;BME280_pressure;Samples;Min_cycle;Max_cycle;Signal;HPM_P1;HPM_P2
2023/04/05 00:00:28;;;;;;;2.70;1.15;;;-1.90;74.70;;;;;;5065821;28;20033;-55
2023/04/05 00:03:01;;;;;;;3.15;1.20;;;-1.90;74.70;;;;;;5068460;28;20157;-51
2023/04/05 00:05:30;;;;;;;4.45;1.20;;;-1.90;75.10;;;;;;5065866;28;20067;-55
2023/04/05 00:07:58;;;;;;;2.80;1.38;;;-2.00;75.90;;;;;;5070110;28;20090;-51
2023/04/05 00:10:23;;;;;;;2.67;1.40;;;-2.00;76.00;;;;;;5071584;28;20051;-53
2023/04/05 00:12:49;;;;;;;1.45;1.10;;;-2.00;76.60;;;;;;5067830;28;20416;-55
2023/04/05 00:15:15;;;;;;;4.03;1.10;;;-2.00;77.50;;;;;;5078291;28;20492;-54
2023/04/05 00:17:42;;;;;;;3.33;1.30;;;-2.00;77.50;;;;;;5069433;28;20047;-54
2023/04/05 00:20:10;;;;;;;3.25;1.52;;;-2.10;76.20;;;;;;5066193;28;20024;-52
2023/04/05 00:22:35;;;;;;;3.90;1.40;;;-2.10;76.30;;;;;;5082620;28;20518;-53
2023/04/05 00:25:02;;;;;;;2.45;1.55;;;-2.10;76.00;;;;;;5070747;28;20036;-52
2023/04/05 00:27:27;;;;;;;2.92;1.63;;;-2.10;76.60;;;;;;5074208;28;20036;-54
2023/04/05 00:29:53;;;;;;;5.65;1.50;;;-2.20;77.50;;;;;;5069458;28;20048;-50
2023/04/05 00:32:18;;;;;;;4.78;1.58;;;-2.20;76.90;;;;;;5085701;28;20055;-55
2023/04/05 00:34:44;;;;;;;2.55;1.50;;;-2.20;76.80;;;;;;5089687;28;20491;-54
2023/04/05 00:37:10;;;;;;;3.28;1.25;;;-2.20;77.10;;;;;;5070467;28;20025;-54
2023/04/05 00:39:37;;;;;;;2.08;1.23;;;-2.20;77.40;;;;;;5089577;28;20542;-52
2023/04/05 00:42:03;;;;;;;2.28;1.50;;;-2.30;77.90;;;;;;5069287;28;20412;-53
2023/04/05 00:44:33;;;;;;;4.10;1.25;;;-2.20;78.00;;;;;;5089841;28;20040;-53
2023/04/05 00:47:00;;;;;;;4.28;1.45;;;-2.30;78.60;;;;;;5049511;28;20032;-52
2023/04/05 00:49:27;;;;;;;2.22;1.55;;;-2.30;78.90;;;;;;5089546;28;20016;-54
2023/04/05 00:51:53;;;;;;;2.90;1.40;;;-2.30;79.20;;;;;;5067651;28;20036;-52
2023/04/05 00:54:19;;;;;;;3.58;1.33;;;-2.30;79.30;;;;;;5089445;28;20115;-48
2023/04/05 00:56:45;;;;;;;2.05;1.15;;;-2.30;79.70;;;;;;5069455;28;20120;-52
2023/04/05 00:59:11;;;;;;;2.58;1.35;;;-2.30;80.40;;;;;;5087028;28;20032;-54
2023/04/05 01:01:39;;;;;;;2.90;1.40;;;-2.30;80.20;;;;;;5089022;28;20082;-53
2023/04/05 01:04:06;;;;;;;2.15;1.35;;;-2.30;81.50;;;;;;5067289;28;20036;-56
2023/04/05 01:06:56;;;;;;;3.20;1.17;;;-2.20;83.30;;;;;;5082811;28;20081;-52
2023/04/05 01:09:32;;;;;;;5.50;1.20;;;-2.20;82.70;;;;;;5049144;28;20036;-53
2023/04/05 01:12:00;;;;;;;;;;;-2.10;83.40;;;;;;5049137;28;20091;-55
2023/04/05 01:14:25;;;;;;;2.92;0.70;;;-2.00;86.20;;;;;;5089104;28;20439;-52
2023/04/05 01:16:56;;;;;;;4.20;1.30;;;-2.00;85.50;;;;;;5069225;28;20139;-50
2023/04/05 01:19:27;;;;;;;2.67;1.40;;;-1.90;84.50;;;;;;5089066;28;20081;-54
2023/04/05 01:22:19;;;;;;;1.52;1.05;;;-1.80;83.30;;;;;;5046549;28;20108;-55
2023/04/05 01:25:33;;;;;;;2.70;1.00;;;-1.70;83.20;;;;;;5088834;28;20438;-54
2023/04/05 01:28:05;;;;;;;1.83;1.40;;;-1.60;86.40;;;;;;5065433;28;20043;-54
2023/04/05 01:30:37;;;;;;;1.65;1.10;;;-1.50;87.70;;;;;;5068765;28;20112;-53
2023/04/05 01:33:33;;;;;;;2.30;1.10;;;-1.40;87.10;;;;;;5086341;28;20056;-54
2023/04/05 01:36:14;;;;;;;3.40;1.10;;;-1.30;86.20;;;;;;5048953;28;20029;-53
2023/04/05 01:38:45;;;;;;;2.35;1.10;;;-1.20;89.90;;;;;;5077047;28;20105;-55
2023/04/05 01:41:10;;;;;;;4.25;1.40;;;-1.10;88.20;;;;;;5077695;28;20089;-53
2023/04/05 01:43:36;;;;;;;2.90;1.35;;;-1.00;86.80;;;;;;5087672;28;20512;-55
2023/04/05 01:46:02;;;;;;;2.25;1.25;;;-1.00;84.70;;;;;;5066490;28;20037;-52
2023/04/05 01:48:27;;;;;;;3.45;1.27;;;-0.90;84.10;;;;;;5087322;28;20484;-54
2023/04/05 01:50:53;;;;;;;2.58;1.20;;;-0.90;84.20;;;;;;5066785;28;20067;-55
2023/04/05 01:53:18;;;;;;;3.20;1.23;;;-0.80;84.00;;;;;;5086403;28;20028;-53
2023/04/05 01:55:44;;;;;;;2.90;1.33;;;-0.70;84.50;;;;;;5067217;28;20246;-55
2023/04/05 01:58:10;;;;;;;2.60;1.17;;;-0.70;86.30;;;;;;5087833;28;20052;-53
2023/04/05 02:00:35;;;;;;;1.30;0.90;;;-0.60;85.40;;;;;;5077863;28;20445;-53
2023/04/05 02:03:01;;;;;;;1.05;0.90;;;-0.50;86.00;;;;;;5068757;28;20566;-52
2023/04/05 02:05:26;;;;;;;4.05;1.40;;;-0.50;86.50;;;;;;5082457;28;20055;-53
2023/04/05 02:07:52;;;;;;;4.25;1.33;;;-0.40;85.20;;;;;;5068669;28;20105;-54
2023/04/05 02:10:18;;;;;;;2.97;1.50;;;-0.40;84.00;;;;;;5085533;28;20035;-53
2023/04/05 02:12:44;;;;;;;4.63;1.92;;;-0.30;85.90;;;;;;5068767;28;20025;-54
2023/04/05 02:15:10;;;;;;;4.47;1.92;;;-0.30;87.10;;;;;;5085676;28;20031;-55
2023/04/05 02:17:38;;;;;;;7.13;1.95;;;-0.20;85.10;;;;;;5088238;28;20035;-55
2023/04/05 02:20:09;;;;;;;5.32;1.55;;;-0.20;89.40;;;;;;5072958;28;20032;-52
2023/04/05 02:22:35;;;;;;;6.97;2.22;;;-0.20;90.60;;;;;;5088350;28;20399;-52
2023/04/05 02:25:02;;;;;;;4.35;1.77;;;-0.10;88.50;;;;;;5072686;28;20047;-52
2023/04/05 02:27:28;;;;;;;4.22;1.65;;;-0.10;87.10;;;;;;5088206;28;20543;-55
2023/04/05 02:29:56;;;;;;;5.38;1.85;;;0.00;85.90;;;;;;5071663;28;20162;-55
2023/04/05 02:32:21;;;;;;;4.82;2.28;;;0.00;86.50;;;;;;5087420;28;20033;-53
2023/04/05 02:34:47;;;;;;;4.70;2.03;;;0.10;84.20;;;;;;5074084;28;20028;-56
2023/04/05 02:37:12;;;;;;;4.40;2.10;;;0.10;81.80;;;;;;5092004;28;20031;-53
2023/04/05 02:39:38;;;;;;;5.38;2.13;;;0.20;81.10;;;;;;5073132;28;20105;-53
2023/04/05 02:42:03;;;;;;;5.28;2.00;;;0.20;79.80;;;;;;5092051;28;20059;-54
2023/04/05 02:44:29;;;;;;;4.68;2.40;;;0.20;80.90;;;;;;5071737;28;20033;-55
2023/04/05 02:46:54;;;;;;;6.00;2.70;;;0.20;81.00;;;;;;5091881;28;20031;-53
2023/04/05 02:49:20;;;;;;;5.95;2.67;;;0.20;80.40;;;;;;5070544;28;20500;-53
2023/04/05 02:51:45;;;;;;;5.45;2.53;;;0.20;79.80;;;;;;5091739;28;20024;-55
2023/04/05 02:54:11;;;;;;;4.05;2.15;;;0.20;80.90;;;;;;5071829;28;20103;-53
2023/04/05 02:56:36;;;;;;;4.63;2.55;;;0.20;79.80;;;;;;5069406;28;20542;-56
2023/04/05 02:59:02;;;;;;;7.00;2.78;;;0.20;79.90;;;;;;5090830;28;20506;-52
2023/04/05 03:01:28;;;;;;;4.50;2.15;;;0.20;79.10;;;;;;5069830;28;20493;-56
2023/04/05 03:03:53;;;;;;;5.72;2.30;;;0.20;79.20;;;;;;5090523;28;20073;-55
2023/04/05 03:06:19;;;;;;;6.47;2.40;;;0.30;81.90;;;;;;5066477;28;20075;-53
2023/04/05 03:08:47;;;;;;;6.93;3.10;;;0.30;82.10;;;;;;5090551;28;20031;-54
2023/04/05 03:11:13;;;;;;;8.00;2.20;;;0.30;83.50;;;;;;5069415;28;20056;-55
2023/04/05 03:13:39;;;;;;;6.75;2.80;;;0.30;80.90;;;;;;5090792;28;20480;-53
2023/04/05 03:16:05;;;;;;;6.20;2.80;;;0.40;79.80;;;;;;5070053;28;20024;-55
2023/04/05 03:18:30;;;;;;;5.28;2.97;;;0.40;81.30;;;;;;5090407;28;20067;-56
2023/04/05 03:20:57;;;;;;;6.50;2.92;;;0.40;80.10;;;;;;5069488;28;20062;-53
2023/04/05 03:23:27;;;;;;;4.70;2.40;;;0.40;81.90;;;;;;5090466;28;20069;-53
2023/04/05 03:25:54;;;;;;;4.88;2.83;;;0.40;80.20;;;;;;5069039;28;20048;-55
2023/04/05 03:28:22;;;;;;;7.45;3.20;;;0.40;80.30;;;;;;5090660;28;20177;-56
2023/04/05 03:30:47;;;;;;;9.43;3.10;;;0.40;81.00;;;;;;5069187;28;20027;-56
2023/04/05 03:33:13;;;;;;;7.85;2.75;;;0.50;83.10;;;;;;5081084;28;20041;-54
2023/04/05 03:35:38;;;;;;;5.47;2.72;;;0.50;81.80;;;;;;5088293;28;20081;-53
2023/04/05 03:38:04;;;;;;;6.50;3.28;;;0.50;84.10;;;;;;5090669;28;20043;-55
2023/04/05 03:40:30;;;;;;;4.78;2.97;;;0.50;81.80;;;;;;5079302;28;20036;-53
2023/04/05 03:42:55;;;;;;;8.82;4.70;;;0.60;81.80;;;;;;5070500;28;20033;-55
2023/04/05 03:45:21;;;;;;;8.75;5.55;;;0.60;80.90;;;;;;5085822;28;20069;-56
2023/04/05 03:47:46;;;;;;;10.52;4.95;;;0.60;80.10;;;;;;5073732;28;20032;-53
2023/04/05 03:50:12;;;;;;;10.20;4.70;;;0.60;79.80;;;;;;5070433;28;20036;-55
2023/04/05 03:52:37;;;;;;;10.77;6.22;;;0.70;80.70;;;;;;5088090;28;20032;-53
2023/04/05 03:55:03;;;;;;;9.70;5.28;;;0.70;79.60;;;;;;5090225;28;20572;-56
2023/04/05 03:57:29;;;;;;;13.15;6.60;;;0.70;79.30;;;;;;5069153;28;20020;-56
2023/04/05 03:59:55;;;;;;;9.13;4.82;;;0.70;80.10;;;;;;5090102;28;20028;-54
2023/04/05 04:02:21;;;;;;;7.60;4.20;;;0.70;79.90;;;;;;5079250;28;20077;-56
2023/04/05 04:04:46;;;;;;;8.15;3.42;;;0.70;79.10;;;;;;5071656;28;20135;-55
2023/04/05 04:07:13;;;;;;;5.85;3.50;;;0.70;78.70;;;;;;5082490;28;20052;-54
2023/04/05 04:09:38;;;;;;;7.88;3.65;;;0.70;78.60;;;;;;5070622;28;20020;-51
2023/04/05 04:12:04;;;;;;;10.68;3.67;;;0.80;77.80;;;;;;5087847;28;20028;-55
2023/04/05 04:14:29;;;;;;;8.88;3.58;;;0.80;77.80;;;;;;5070685;28;20043;-53
2023/04/05 04:16:55;;;;;;;10.07;3.47;;;0.80;77.30;;;;;;5087466;28;20066;-55
2023/04/05 04:19:20;;;;;;;9.07;4.07;;;0.80;77.50;;;;;;5088870;28;20052;-55
2023/04/05 04:21:50;;;;;;;7.53;3.55;;;0.80;77.70;;;;;;5074010;28;20396;-53
2023/04/05 04:24:19;;;;;;;6.88;3.75;;;0.80;77.40;;;;;;5090175;28;20021;-52
2023/04/05 04:26:45;;;;;;;10.35;3.47;;;0.80;77.20;;;;;;5071436;28;20297;-55
2023/04/05 04:29:17;;;;;;;6.95;3.10;;;0.90;77.60;;;;;;5090271;28;20380;-53
2023/04/05 04:31:47;;;;;;;6.97;3.08;;;0.80;80.30;;;;;;5056092;28;20028;-54
2023/04/05 04:34:17;;;;;;;7.07;2.90;;;0.90;78.50;;;;;;5089837;28;20528;-51
2023/04/05 04:36:45;;;;;;;6.97;3.33;;;0.90;79.50;;;;;;5072642;28;20056;-52
2023/04/05 04:39:12;;;;;;;9.25;3.20;;;0.90;79.10;;;;;;5089876;28;20024;-52
2023/04/05 04:41:43;;;;;;;6.35;2.53;;;0.90;78.50;;;;;;5072297;28;20093;-56
2023/04/05 04:44:13;;;;;;;7.30;3.08;;;0.90;79.50;;;;;;5089812;28;20064;-53
2023/04/05 04:46:42;;;;;;;7.57;3.13;;;1.00;78.70;;;;;;5056287;28;20055;-55
2023/04/05 04:49:09;;;;;;;4.70;2.45;;;1.00;78.80;;;;;;5089841;28;20039;-52
2023/04/05 04:51:37;;;;;;;4.90;2.60;;;1.00;77.90;;;;;;5071668;28;20031;-53
2023/04/05 04:54:02;;;;;;;5.38;2.45;;;1.00;77.40;;;;;;5089811;28;20169;-54
2023/04/05 04:56:28;;;;;;;7.45;3.10;;;1.10;78.50;;;;;;5069461;28;20193;-55
2023/04/05 04:58:55;;;;;;;5.47;2.55;;;1.10;78.10;;;;;;5089359;28;20024;-53
2023/04/05 05:01:21;;;;;;;5.95;3.03;;;1.10;78.10;;;;;;5069486;28;20025;-53
2023/04/05 05:03:47;;;;;;;6.40;2.47;;;1.10;78.00;;;;;;5081409;28;20028;-53
2023/04/05 05:06:16;;;;;;;7.32;2.40;;;1.20;78.20;;;;;;5070983;28;20435;-55
2023/04/05 05:08:42;;;;;;;5.40;2.55;;;1.20;77.70;;;;;;5089219;28;20032;-51
2023/04/05 05:11:08;;;;;;;4.35;2.60;;;1.20;77.20;;;;;;5068416;28;20028;-54
2023/04/05 05:13:33;;;;;;;7.97;3.05;;;1.20;77.10;;;;;;5089396;28;20052;-55
2023/04/05 05:16:00;;;;;;;8.55;3.40;;;1.30;77.60;;;;;;5069580;28;20039;-55
2023/04/05 05:18:26;;;;;;;10.95;3.35;;;1.30;77.20;;;;;;5087120;28;20392;-55
2023/04/05 05:20:51;;;;;;;9.63;3.10;;;1.40;77.30;;;;;;5088943;28;20054;-55
2023/04/05 05:23:17;;;;;;;7.70;3.15;;;1.40;77.60;;;;;;5067807;28;20025;-54
2023/04/05 05:25:42;;;;;;;6.03;2.25;;;1.50;77.90;;;;;;5088548;28;20032;-53
2023/04/05 05:28:08;;;;;;;4.03;2.58;;;1.50;79.10;;;;;;5067632;28;20036;-55
2023/04/05 05:30:33;;;;;;;4.30;2.00;;;1.50;78.30;;;;;;5087049;28;20036;-52
2023/04/05 05:33:00;;;;;;;3.38;2.10;;;1.60;78.50;;;;;;5074330;28;20032;-54
2023/04/05 05:35:26;;;;;;;4.68;2.38;;;1.70;77.80;;;;;;5089109;28;20027;-54
2023/04/05 05:37:51;;;;;;;3.38;1.92;;;1.80;76.80;;;;;;5067310;28;20405;-55
2023/04/05 05:40:17;;;;;;;3.17;2.05;;;1.90;76.30;;;;;;5088309;28;20042;-55
2023/04/05 05:42:42;;;;;;;3.05;1.90;;;1.90;75.40;;;;;;5067518;28;20040;-54
2023/04/05 05:45:09;;;;;;;6.60;2.47;;;2.00;74.90;;;;;;5088163;28;20047;-54
2023/04/05 05:47:35;;;;;;;5.55;2.63;;;2.10;75.90;;;;;;5067328;28;20043;-54
2023/04/05 05:50:00;;;;;;;5.00;2.55;;;2.10;76.40;;;;;;5088168;28;20384;-53
2023/04/05 05:52:26;;;;;;;5.00;2.42;;;2.10;76.30;;;;;;5078150;28;20031;-51
2023/04/05 05:54:51;;;;;;;3.70;2.30;;;2.20;75.40;;;;;;5069048;28;20481;-51
2023/04/05 05:57:17;;;;;;;5.47;2.30;;;2.30;74.70;;;;;;5086114;28;20020;-51
2023/04/05 05:59:42;;;;;;;4.95;2.47;;;2.50;74.40;;;;;;5069090;28;20029;-52
2023/04/05 06:02:07;;;;;;;5.13;2.42;;;2.60;74.00;;;;;;5086022;28;20028;-52
2023/04/05 06:04:33;;;;;;;5.60;2.25;;;2.80;72.90;;;;;;5069021;28;20041;-53
2023/04/05 06:06:59;;;;;;;7.50;2.33;;;2.80;71.50;;;;;;5085034;28;20028;-52
2023/04/05 06:09:25;;;;;;;2.63;1.80;;;2.90;71.30;;;;;;5092593;28;20031;-50
2023/04/05 06:11:55;;;;;;;4.72;1.90;;;3.10;71.20;;;;;;5077040;28;20020;-50
2023/04/05 06:14:21;;;;;;;5.25;2.15;;;3.20;70.20;;;;;;5092697;28;20494;-52
2023/04/05 06:16:46;;;;;;;4.03;2.40;;;3.30;69.30;;;;;;5076260;28;20032;-56
2023/04/05 06:19:12;;;;;;;3.75;2.13;;;3.40;68.40;;;;;;5092833;28;20143;-52
2023/04/05 06:21:37;;;;;;;6.53;2.00;;;3.50;68.50;;;;;;5074925;28;20024;-55
2023/04/05 06:24:03;;;;;;;3.78;1.80;;;3.70;68.10;;;;;;5076087;28;20032;-52
2023/04/05 06:26:29;;;;;;;2.50;1.52;;;3.80;66.60;;;;;;5091522;28;20024;-51
2023/04/05 06:28:55;;;;;;;2.67;1.52;;;3.90;66.10;;;;;;5067740;28;20033;-55
2023/04/05 06:31:26;;;;;;;4.95;2.28;;;4.00;66.10;;;;;;5089821;28;20441;-54
2023/04/05 06:33:52;;;;;;;4.22;1.95;;;4.10;65.70;;;;;;5073438;28;20538;-55
2023/04/05 06:36:17;;;;;;;2.95;2.03;;;4.30;65.70;;;;;;5090569;28;20032;-55
2023/04/05 06:38:43;;;;;;;4.70;1.92;;;4.50;65.10;;;;;;5068919;28;20110;-50
2023/04/05 06:41:08;;;;;;;2.90;1.70;;;4.60;64.00;;;;;;5089719;28;20102;-53
2023/04/05 06:43:34;;;;;;;2.75;1.50;;;4.80;62.50;;;;;;5079792;28;20456;-53
2023/04/05 06:45:59;;;;;;;4.50;1.80;;;4.90;62.10;;;;;;5071717;28;20441;-53
2023/04/05 06:48:27;;;;;;;4.20;1.95;;;5.00;60.90;;;;;;5089002;28;20024;-52
2023/04/05 06:50:56;;;;;;;5.82;2.25;;;5.00;60.10;;;;;;5071540;28;20052;-55
2023/04/05 06:53:22;;;;;;;4.40;1.88;;;5.10;60.70;;;;;;5089158;28;20028;-55
2023/04/05 06:55:49;;;;;;;4.78;2.30;;;5.10;60.60;;;;;;5071630;28;20039;-49
2023/04/05 06:58:15;;;;;;;4.65;2.50;;;5.10;59.70;;;;;;5089041;28;20301;-54
2023/04/05 07:00:40;;;;;;;4.72;2.47;;;5.10;60.30;;;;;;5091449;28;20519;-54
2023/04/05 07:03:06;;;;;;;9.40;2.63;;;5.00;57.80;;;;;;5076135;28;20048;-55
2023/04/05 07:05:31;;;;;;;7.00;2.38;;;4.80;58.00;;;;;;5078239;28;20037;-55
2023/04/05 07:07:57;;;;;;;6.43;2.53;;;4.80;60.10;;;;;;5088494;28;20024;-54
2023/04/05 07:10:22;;;;;;;5.43;2.92;;;4.90;60.50;;;;;;5091262;28;20407;-51
2023/04/05 07:12:50;;;;;;;5.18;2.28;;;5.10;59.60;;;;;;5071918;28;20032;-53
2023/04/05 07:15:15;;;;;;;4.18;2.30;;;5.20;60.00;;;;;;5091629;28;20506;-56
2023/04/05 07:17:41;;;;;;;6.45;2.05;;;5.40;59.10;;;;;;5071765;28;20036;-53
2023/04/05 07:20:07;;;;;;;4.25;2.70;;;5.70;58.70;;;;;;5090786;28;20077;-51
2023/04/05 07:22:33;;;;;;;7.15;2.72;;;6.00;57.10;;;;;;5070882;28;20029;-51
2023/04/05 07:24:58;;;;;;;7.88;3.15;;;6.20;54.90;;;;;;5090864;28;20032;-55
2023/04/05 07:27:24;;;;;;;4.43;2.92;;;6.70;53.40;;;;;;5069707;28;20576;-54
2023/04/05 07:29:49;;;;;;;3.90;2.50;;;7.10;50.90;;;;;;5090914;28;20039;-52
2023/04/05 07:32:15;;;;;;;7.85;2.80;;;7.40;51.50;;;;;;5071807;28;20100;-51
2023/04/05 07:34:41;;;;;;;5.82;2.50;;;7.40;49.10;;;;;;5088968;28;20032;-53
2023/04/05 07:37:06;;;;;;;5.70;2.97;;;7.50;46.70;;;;;;5090549;28;20090;-56
2023/04/05 07:39:32;;;;;;;5.75;2.40;;;7.70;47.10;;;;;;5069154;28;20492;-54
2023/04/05 07:41:58;;;;;;;4.80;2.63;;;7.70;47.00;;;;;;5089774;28;20020;-49
2023/04/05 07:44:23;;;;;;;8.63;3.47;;;7.20;38.90;;;;;;5069040;28;20523;-54
2023/04/05 07:46:49;;;;;;;4.20;2.55;;;7.00;43.00;;;;;;5089738;28;20032;-53
2023/04/05 07:49:14;;;;;;;3.60;2.03;;;6.80;39.90;;;;;;5068935;28;20035;-52
2023/04/05 07:51:41;;;;;;;5.80;2.75;;;6.50;40.60;;;;;;5089741;28;20733;-54
2023/04/05 07:54:07;;;;;;;5.88;2.85;;;6.20;42.60;;;;;;5068893;28;20048;-55
2023/04/05 07:56:33;;;;;;;5.22;2.88;;;5.90;42.90;;;;;;5088254;28;20097;-51
2023/04/05 07:58:58;;;;;;;4.85;2.60;;;5.70;44.40;;;;;;5068715;28;20024;-53
2023/04/05 08:01:27;;;;;;;6.78;2.72;;;5.70;45.20;;;;;;5089421;28;20069;-54
2023/04/05 08:03:53;;;;;;;6.97;2.92;;;5.80;45.60;;;;;;5068243;28;20029;-52
2023/04/05 08:06:19;;;;;;;3.63;2.70;;;5.80;45.00;;;;;;5083663;28;20089;-55
2023/04/05 08:08:45;;;;;;;4.18;2.15;;;5.90;46.80;;;;;;5068412;28;20036;-51
2023/04/05 08:11:11;;;;;;;4.22;2.30;;;6.00;46.80;;;;;;5089431;28;20039;-52
2023/04/05 08:13:40;;;;;;;4.93;2.20;;;6.20;45.60;;;;;;5078725;28;20028;-52
2023/04/05 08:16:09;;;;;;;7.95;2.35;;;6.30;44.70;;;;;;5069828;28;20031;-55
2023/04/05 08:18:35;;;;;;;2.92;1.95;;;6.30;44.30;;;;;;5087722;28;20031;-50
2023/04/05 08:21:00;;;;;;;2.25;1.67;;;6.30;43.90;;;;;;5069916;28;20119;-53
2023/04/05 08:23:26;;;;;;;4.45;1.95;;;6.50;43.10;;;;;;5087208;28;20028;-50
2023/04/05 08:25:52;;;;;;;5.90;1.77;;;6.60;40.40;;;;;;5068535;28;20037;-54
2023/04/05 08:28:18;;;;;;;3.38;1.88;;;6.60;42.00;;;;;;5087055;28;20036;-52
2023/04/05 08:30:45;;;;;;;4.00;1.60;;;6.50;41.00;;;;;;5069853;28;20043;-54
2023/04/05 08:33:11;;;;;;;3.05;2.00;;;6.50;39.70;;;;;;5078438;28;20043;-53
2023/04/05 08:35:37;;;;;;;2.45;1.45;;;6.30;39.80;;;;;;5088898;28;20024;-54
2023/04/05 08:38:04;;;;;;;3.67;1.75;;;6.20;41.40;;;;;;5073446;28;20059;-53
2023/04/05 08:40:40;;;;;;;1.90;1.30;;;6.30;42.20;;;;;;5089422;28;20027;-51
2023/04/05 08:43:24;;;;;;;;;;;6.50;40.50;;;;;;5060177;28;20032;-51
2023/04/05 08:45:51;;;;;;;3.35;1.23;;;6.40;40.30;;;;;;5069553;28;19926;-52
2023/04/05 08:48:17;;;;;;;2.28;1.40;;;6.40;41.60;;;;;;5086922;28;20028;-53
2023/04/05 08:50:51;;;;;;;2.70;1.38;;;6.60;41.30;;;;;;5069262;28;20029;-54
2023/04/05 08:53:16;;;;;;;3.40;1.40;;;6.50;42.20;;;;;;5086838;28;20048;-52
2023/04/05 08:55:42;;;;;;;4.07;1.48;;;6.70;42.60;;;;;;5088001;28;20059;-55
2023/04/05 08:58:13;;;;;;;4.38;1.88;;;6.90;42.30;;;;;;5072569;28;20036;-55
2023/04/05 09:00:40;;;;;;;2.90;1.13;;;7.20;41.30;;;;;;5089258;28;20016;-52
2023/04/05 09:03:07;;;;;;;3.03;1.38;;;7.30;40.00;;;;;;5073328;28;20028;-51
2023/04/05 09:05:35;;;;;;;3.67;1.30;;;7.20;39.00;;;;;;5073073;28;20098;-53
2023/04/05 09:08:01;;;;;;;2.95;1.38;;;7.30;40.10;;;;;;5086563;28;20024;-53
2023/04/05 09:10:27;;;;;;;2.45;1.35;;;7.40;40.50;;;;;;5088922;28;20077;-52
2023/04/05 09:12:53;;;;;;;2.38;1.35;;;7.40;40.70;;;;;;5071581;28;20023;-53
2023/04/05 09:15:23;;;;;;;2.22;1.40;;;7.60;41.10;;;;;;5088827;28;20111;-50
2023/04/05 09:17:49;;;;;;;3.55;1.85;;;7.70;41.00;;;;;;5070298;28;20488;-56
2023/04/05 09:20:14;;;;;;;1.80;1.13;;;7.80;38.30;;;;;;5088911;28;20698;-53
2023/04/05 09:22:44;;;;;;;3.90;1.77;;;7.80;39.60;;;;;;5069750;28;20222;-54
2023/04/05 09:25:11;;;;;;;6.07;1.58;;;8.00;40.00;;;;;;5087392;28;20057;-53
2023/04/05 09:27:55;;;;;;;2.05;1.25;;;8.00;39.20;;;;;;5067551;28;20060;-51
2023/04/05 09:30:21;;;;;;;3.08;1.45;;;8.20;39.30;;;;;;5088661;28;20027;-54
2023/04/05 09:32:51;;;;;;;2.03;1.20;;;8.40;39.60;;;;;;5071895;28;20044;-49
2023/04/05 09:35:20;;;;;;;2.75;1.05;;;8.60;41.30;;;;;;5088701;28;20266;-53
2023/04/05 09:38:00;;;;;;;2.63;1.23;;;8.90;42.20;;;;;;5086567;28;20028;-50
2023/04/05 09:40:45;;;;;;;2.28;1.50;;;9.10;42.20;;;;;;5088649;28;20485;-53
2023/04/05 09:43:12;;;;;;;3.78;1.70;;;9.10;38.40;;;;;;5073852;28;20055;-51
2023/04/05 09:45:44;;;;;;;2.95;1.50;;;8.80;39.10;;;;;;5088441;28;20020;-53
2023/04/05 09:48:09;;;;;;;3.42;1.90;;;8.60;40.20;;;;;;5059719;28;20103;-54
2023/04/05 09:50:35;;;;;;;3.30;1.85;;;8.60;38.50;;;;;;5088475;28;20108;-54
2023/04/05 09:53:19;;;;;;;3.72;1.85;;;8.40;36.70;;;;;;5072347;28;20050;-51
2023/04/05 09:55:44;;;;;;;3.50;1.60;;;8.00;38.40;;;;;;5088415;28;20028;-53
2023/04/05 09:58:18;;;;;;;3.05;1.55;;;8.10;38.70;;;;;;5073683;28;20082;-53
2023/04/05 10:00:53;;;;;;;4.22;1.98;;;8.30;39.50;;;;;;5087163;28;20059;-51
2023/04/05 10:03:19;;;;;;;4.05;1.42;;;8.10;38.60;;;;;;5074110;28;20028;-50
2023/04/05 10:05:46;;;;;;;2.50;1.40;;;8.40;39.40;;;;;;5076450;28;20032;-51
2023/04/05 10:08:12;;;;;;;3.00;1.48;;;8.70;38.90;;;;;;5073264;28;20431;-51
2023/04/05 10:10:45;;;;;;;2.33;1.70;;;8.70;37.30;;;;;;5086911;28;20024;-52
2023/04/05 10:13:12;;;;;;;5.45;2.35;;;8.60;36.10;;;;;;5060061;28;20077;-54
2023/04/05 10:15:38;;;;;;;2.10;1.58;;;8.40;39.00;;;;;;5088328;28;20747;-51
2023/04/05 10:18:15;;;;;;;2.22;1.15;;;8.50;39.80;;;;;;5070999;28;20592;-53
2023/04/05 10:20:43;;;;;;;1.83;1.10;;;8.70;41.30;;;;;;5088146;28;20028;-52
2023/04/05 10:23:21;;;;;;;4.22;1.67;;;8.70;40.00;;;;;;5072582;28;20500;-53
2023/04/05 10:26:07;;;;;;;3.20;2.15;;;8.60;40.30;;;;;;5088101;28;20071;-55
2023/04/05 10:28:35;;;;;;;2.45;1.40;;;8.10;41.90;;;;;;5065589;28;20028;-52
2023/04/05 10:31:19;;;;;;;1.98;1.48;;;7.90;43.50;;;;;;5068097;28;20547;-55
2023/04/05 10:33:50;;;;;;;3.03;1.95;;;8.00;45.10;;;;;;5068818;28;20104;-52
2023/04/05 10:36:38;;;;;;;2.20;1.40;;;8.10;44.90;;;;;;5063345;28;20048;-53
2023/04/05 10:39:07;;;;;;;4.35;1.88;;;8.40;43.90;;;;;;5074590;28;20020;-54
2023/04/05 10:41:41;;;;;;;3.88;2.22;;;8.60;42.40;;;;;;5087935;28;20301;-56
2023/04/05 10:44:09;;;;;;;4.72;1.90;;;8.30;41.20;;;;;;5075259;28;20024;-50
2023/04/05 10:46:38;;;;;;;5.68;2.08;;;8.20;43.30;;;;;;5087811;28;20400;-48
2023/04/05 10:49:20;;;;;;;3.20;1.90;;;8.30;43.90;;;;;;5065961;28;20033;-51
2023/04/05 10:51:47;;;;;;;4.88;1.80;;;8.50;43.50;;;;;;5047733;28;20063;-51
2023/04/05 10:54:15;;;;;;;3.08;1.50;;;8.50;40.20;;;;;;5086917;28;20313;-49
2023/04/05 10:56:42;;;;;;;2.28;1.83;;;8.60;41.70;;;;;;5091390;28;20024;-51
2023/04/05 10:59:09;;;;;;;3.20;1.70;;;8.70;41.40;;;;;;5068519;28;20037;-50
2023/04/05 11:01:37;;;;;;;3.13;1.42;;;8.80;40.90;;;;;;5091002;28;20098;-50
2023/04/05 11:04:14;;;;;;;3.72;2.15;;;9.10;40.80;;;;;;5069257;28;20021;-50
2023/04/05 11:06:41;;;;;;;4.07;1.70;;;9.40;38.50;;;;;;5085631;28;20024;-49
2023/04/05 11:09:21;;;;;;;3.22;1.98;;;9.40;39.10;;;;;;5069437;28;20016;-47
2023/04/05 11:11:49;;;;;;;2.88;1.55;;;9.60;38.40;;;;;;5051120;28;20424;-53
2023/04/05 11:14:25;;;;;;;3.72;1.60;;;9.70;36.00;;;;;;5088669;28;20040;-50
2023/04/05 11:16:55;;;;;;;2.10;1.85;;;9.30;38.10;;;;;;5091007;28;20478;-51
2023/04/05 11:19:46;;;;;;;3.67;1.50;;;9.50;38.30;;;;;;5069116;28;20584;-49
2023/04/05 11:22:23;;;;;;;3.85;1.73;;;9.30;37.80;;;;;;5050679;28;20037;-52
2023/04/05 11:24:55;;;;;;;2.50;1.50;;;9.00;37.90;;;;;;5050663;28;20047;-53
2023/04/05 11:27:39;;;;;;;2.88;1.65;;;8.80;40.10;;;;;;5090946;28;20539;-50
2023/04/05 11:30:06;;;;;;;2.42;1.45;;;8.80;41.00;;;;;;5090998;28;20024;-47
2023/04/05 11:32:39;;;;;;;1.95;1.40;;;9.00;40.60;;;;;;5071960;28;20049;-50
2023/04/05 11:35:11;;;;;;;4.32;1.80;;;9.20;40.40;;;;;;5090864;28;20032;-48
2023/04/05 11:37:55;;;;;;;3.72;1.90;;;9.10;38.60;;;;;;5052887;28;20036;-49
2023/04/05 11:40:26;;;;;;;4.80;1.80;;;8.80;40.60;;;;;;5090847;28;20034;-48
2023/04/05 11:43:04;;;;;;;6.10;1.92;;;8.50;40.70;;;;;;5072949;28;20028;-51
2023/04/05 11:45:31;;;;;;;2.72;1.80;;;8.50;42.50;;;;;;5089247;28;20028;-49
2023/04/05 11:47:59;;;;;;;3.10;1.85;;;8.70;41.50;;;;;;5072378;28;20029;-48
2023/04/05 11:50:26;;;;;;;4.47;1.52;;;8.50;41.30;;;;;;5090644;28;20112;-50
2023/04/05 11:53:14;;;;;;;4.25;1.85;;;8.70;41.60;;;;;;5072615;28;20086;-51
2023/04/05 11:55:42;;;;;;;3.30;1.52;;;8.60;40.00;;;;;;5090481;28;20024;-49
2023/04/05 11:58:27;;;;;;;3.53;2.00;;;8.50;41.00;;;;;;5074876;28;20054;-50
2023/04/05 12:01:03;;;;;;;3.63;1.83;;;8.70;40.90;;;;;;5090344;28;20047;-52
2023/04/05 12:03:30;;;;;;;2.53;1.35;;;8.60;37.50;;;;;;5067128;28;20356;-52
2023/04/05 12:05:59;;;;;;;4.85;1.50;;;8.90;38.50;;;;;;5064584;28;20047;-50
2023/04/05 12:08:41;;;;;;;2.40;1.45;;;8.80;39.00;;;;;;5087787;28;20620;-48
2023/04/05 12:11:08;;;;;;;5.13;1.60;;;9.00;38.10;;;;;;5049973;28;20385;-50
2023/04/05 12:13:34;;;;;;;4.72;1.70;;;9.10;38.50;;;;;;5087345;28;20456;-52
2023/04/05 12:16:05;;;;;;;5.35;2.03;;;9.10;38.40;;;;;;5070266;28;20320;-50
2023/04/05 12:18:35;;;;;;;2.42;1.98;;;8.60;38.10;;;;;;5066974;28;20046;-49
2023/04/05 12:21:02;;;;;;;2.90;1.63;;;8.50;39.30;;;;;;5070007;28;20627;-52
2023/04/05 12:23:28;;;;;;;2.60;1.52;;;8.70;39.80;;;;;;5087394;28;20040;-51
2023/04/05 12:25:55;;;;;;;4.05;1.67;;;8.80;39.40;;;;;;5070037;28;20043;-47
2023/04/05 12:28:21;;;;;;;5.03;1.58;;;9.10;37.90;;;;;;5087294;28;20022;-52
2023/04/05 12:30:54;;;;;;;4.25;1.70;;;9.40;38.00;;;;;;5069876;28;20029;-49
2023/04/05 12:33:34;;;;;;;3.15;1.70;;;9.70;36.70;;;;;;5077298;28;20095;-52
2023/04/05 12:36:04;;;;;;;2.45;1.70;;;9.80;34.00;;;;;;5089352;28;20035;-49
2023/04/05 12:38:29;;;;;;;3.70;1.88;;;9.70;35.70;;;;;;5076707;28;20059;-50
2023/04/05 12:41:02;;;;;;;3.10;1.90;;;9.60;34.50;;;;;;5069813;28;20060;-47
2023/04/05 12:43:41;;;;;;;2.65;1.52;;;9.10;36.50;;;;;;5086817;28;20057;-49
2023/04/05 12:46:16;;;;;;;4.07;1.60;;;9.20;37.20;;;;;;5069172;28;20056;-48
2023/04/05 12:48:42;;;;;;;3.40;1.88;;;9.40;36.50;;;;;;5085463;28;20024;-49
2023/04/05 12:51:17;;;;;;;4.00;1.70;;;9.40;37.10;;;;;;5068275;28;20388;-48
2023/04/05 12:53:45;;;;;;;2.45;1.40;;;9.20;38.10;;;;;;5087095;28;20044;-49
2023/04/05 12:56:12;;;;;;;2.88;1.83;;;9.10;39.60;;;;;;5069369;28;20055;-51
2023/04/05 12:58:38;;;;;;;2.45;1.60;;;9.10;39.70;;;;;;5086943;28;20043;-50
2023/04/05 13:01:04;;;;;;;1.98;1.40;;;9.00;39.50;;;;;;5069592;28;20021;-53